sensor_id;sensor_type;location;lat;lon;timestamp;pressure;altitude;pressure_sealevel;temperature;humidity
4392;BME280;2210;51.938;8.488;2023-04-01T00:02:05;98384.63;;;9.56;100.00
4392;BME280;2210;51.938;8.488;2023-04-01T00:06:06;98380.50;;;9.53;100.00
4392;BME280;2210;51.938;8.488;2023-04-01T00:10:08;98381.34;;;9.54;100.00
4392;BME280;2210;51.938;8.488;2023-04-01T00:14:09;98378.03;;;9.52;100.00
4392;BME280;2210;51.938;8.488;2023-04-01T00:18:28;98377.22;;;9.51;100.00
4392;BME280;2210;51.938;8.488;2023-04-01T00:22:28;98383.84;;;9.50;100.00
4392;BME280;2210;51.938;8.488;2023-04-01T00:26:29;98379.16;;;9.51;100.00
4392;BME280;2210;51.938;8.488;2023-04-01T00:30:29;98377.22;;;9.51;100.00
4392;BME280;2210;51.938;8.488;2023-04-01T00:34:29;98373.63;;;9.51;100.00
4392;BME280;2210;51.938;8.488;2023-04-01T00:38:30;98363.72;;;9.55;100.00
4392;BME280;2210;51.938;8.488;2023-04-01T00:42:30;98365.91;;;9.58;100.00
4392;BME280;2210;51.938;8.488;2023-04-01T00:46:34;98366.47;;;9.55;100.00
4392;BME280;2210;51.938;8.488;2023-04-01T00:50:40;98364.28;;;9.57;100.00
4392;BME280;2210;51.938;8.488;2023-04-01T00:54:46;98360.41;;;9.58;100.00
4392;BME280;2210;51.938;8.488;2023-04-01T00:58:51;98360.94;;;9.60;100.00
4392;BME280;2210;51.938;8.488;2023-04-01T01:02:57;98355.44;;;9.60;100.00
4392;BME280;2210;51.938;8.488;2023-04-01T01:07:32;98354.59;;;9.65;100.00
4392;BME280;2210;51.938;8.488;2023-04-01T01:11:51;98355.41;;;9.65;100.00
4392;BME280;2210;51.938;8.488;2023-04-01T01:16:06;98352.09;;;9.68;100.00
4392;BME280;2210;51.938;8.488;2023-04-01T01:38:17;98347.75;;;9.62;100.00
4392;BME280;2210;51.938;8.488;2023-04-01T01:42:20;98352.69;;;9.60;100.00
4392;BME280;2210;51.938;8.488;2023-04-01T01:46:25;98344.16;;;9.61;100.00
4392;BME280;2210;51.938;8.488;2023-04-01T01:50:30;98349.97;;;9.55;100.00
4392;BME280;2210;51.938;8.488;2023-04-01T01:54:34;98343.97;;;9.48;100.00
4392;BME280;2210;51.938;8.488;2023-04-01T01:58:52;98348.38;;;9.43;100.00
4392;BME280;2210;51.938;8.488;2023-04-01T02:02:58;98351.72;;;9.40;100.00
4392;BME280;2210;51.938;8.488;2023-04-01T02:07:05;98344.03;;;9.37;100.00
4392;BME280;2210;51.938;8.488;2023-04-01T02:11:16;98340.19;;;9.33;100.00
4392;BME280;2210;51.938;8.488;2023-04-01T02:15:27;98344.88;;;9.33;100.00
4392;BME280;2210;51.938;8.488;2023-04-01T02:24:06;98341.03;;;9.34;100.00
4392;BME280;2210;51.938;8.488;2023-04-01T02:28:09;98340.19;;;9.33;100.00
4392;BME280;2210;51.938;8.488;2023-04-01T02:32:12;98343.47;;;9.35;100.00
4392;BME280;2210;51.938;8.488;2023-04-01T02:36:13;98347.31;;;9.39;100.00
4392;BME280;2210;51.938;8.488;2023-04-01T02:40:15;98347.31;;;9.39;100.00
4392;BME280;2210;51.938;8.488;2023-04-01T02:44:18;98348.13;;;9.40;100.00
4392;BME280;2210;51.938;8.488;2023-04-01T02:48:19;98336.31;;;9.39;100.00
4392;BME280;2210;51.938;8.488;2023-04-01T02:52:31;98346.19;;;9.45;100.00
4392;BME280;2210;51.938;8.488;2023-04-01T02:56:32;98342.31;;;9.47;100.00
4392;BME280;2210;51.938;8.488;2023-04-01T03:00:32;98340.94;;;9.44;100.00
4392;BME280;2210;51.938;8.488;2023-04-01T03:04:32;98347.28;;;9.44;100.00
4392;BME280;2210;51.938;8.488;2023-04-01T03:08:33;98348.97;;;9.40;100.00
4392;BME280;2210;51.938;8.488;2023-04-01T03:12:33;98348.13;;;9.40;100.00
4392;BME280;2210;51.938;8.488;2023-04-01T03:16:49;98349.78;;;9.41;100.00
4392;BME280;2210;51.938;8.488;2023-04-01T03:20:55;98349.78;;;9.41;100.00
4392;BME280;2210;51.938;8.488;2023-04-01T03:24:58;98350.88;;;9.40;100.00
4392;BME280;2210;51.938;8.488;2023-04-01T03:29:01;98352.00;;;9.39;100.00
4392;BME280;2210;51.938;8.488;2023-04-01T03:33:21;98362.16;;;9.38;100.00
4392;BME280;2210;51.938;8.488;2023-04-01T03:37:27;98361.66;;;9.31;100.00
4392;BME280;2210;51.938;8.488;2023-04-01T03:41:32;98352.03;;;9.28;100.00
4392;BME280;2210;51.938;8.488;2023-04-01T03:45:32;98363.59;;;9.31;100.00
4392;BME280;2210;51.938;8.488;2023-04-01T03:49:32;98363.63;;;9.25;100.00
4392;BME280;2210;51.938;8.488;2023-04-01T03:53:36;98366.66;;;9.24;100.00
4392;BME280;2210;51.938;8.488;2023-04-01T03:57:36;98363.63;;;9.25;100.00
4392;BME280;2210;51.938;8.488;2023-04-01T04:01:36;98369.94;;;9.26;100.00
4392;BME280;2210;51.938;8.488;2023-04-01T04:06:03;98366.38;;;9.25;100.00
4392;BME280;2210;51.938;8.488;2023-04-01T04:10:03;98360.31;;;9.23;100.00
4392;BME280;2210;51.938;8.488;2023-04-01T04:14:04;98363.63;;;9.20;100.00
4392;BME280;2210;51.938;8.488;2023-04-01T04:18:04;98361.16;;;9.19;100.00
4392;BME280;2210;51.938;8.488;2023-04-01T04:22:20;98363.91;;;9.19;100.00
4392;BME280;2210;51.938;8.488;2023-04-01T04:26:20;98366.66;;;9.19;100.00
4392;BME280;2210;51.938;8.488;2023-04-01T04:30:20;98370.81;;;9.16;100.00
4392;BME280;2210;51.938;8.488;2023-04-01T04:34:21;98369.69;;;9.17;100.00
4392;BME280;2210;51.938;8.488;2023-04-01T04:38:22;98371.91;;;9.10;100.00
4392;BME280;2210;51.938;8.488;2023-04-01T04:42:23;98381.00;;;9.05;100.00
4392;BME280;2210;51.938;8.488;2023-04-01T04:46:24;98374.41;;;9.06;100.00
4392;BME280;2210;51.938;8.488;2023-04-01T04:50:24;98373.84;;;9.04;100.00
4392;BME280;2210;51.938;8.488;2023-04-01T04:54:29;98376.63;;;8.99;100.00
4392;BME280;2210;51.938;8.488;2023-04-01T04:58:29;98383.25;;;8.93;100.00
4392;BME280;2210;51.938;8.488;2023-04-01T05:02:33;98381.03;;;8.95;100.00
4392;BME280;2210;51.938;8.488;2023-04-01T05:06:33;98388.19;;;8.91;100.00
4392;BME280;2210;51.938;8.488;2023-04-01T05:10:33;98388.47;;;8.89;100.00
4392;BME280;2210;51.938;8.488;2023-04-01T05:14:34;98393.97;;;8.89;100.00
4392;BME280;2210;51.938;8.488;2023-04-01T05:18:34;98396.19;;;8.87;100.00
4392;BME280;2210;51.938;8.488;2023-04-01T05:22:37;98400.84;;;8.87;100.00
4392;BME280;2210;51.938;8.488;2023-04-01T05:26:41;98412.69;;;8.87;100.00
4392;BME280;2210;51.938;8.488;2023-04-01T05:30:50;98414.03;;;8.90;100.00
4392;BME280;2210;51.938;8.488;2023-04-01T05:34:51;98414.31;;;8.88;100.00
4392;BME280;2210;51.938;8.488;2023-04-01T05:38:57;98421.19;;;8.86;100.00
4392;BME280;2210;51.938;8.488;2023-04-01T05:43:04;98418.47;;;8.86;100.00
4392;BME280;2210;51.938;8.488;2023-04-01T05:47:07;98418.72;;;8.84;100.00
4392;BME280;2210;51.938;8.488;2023-04-01T05:51:14;98422.81;;;8.82;100.00
4392;BME280;2210;51.938;8.488;2023-04-01T05:55:18;98418.97;;;8.88;100.00
4392;BME280;2210;51.938;8.488;2023-04-01T05:59:18;98423.38;;;8.89;100.00
4392;BME280;2210;51.938;8.488;2023-04-01T06:03:18;98426.69;;;8.86;100.00
4392;BME280;2210;51.938;8.488;2023-04-01T06:07:21;98425.00;;;8.95;100.00
4392;BME280;2210;51.938;8.488;2023-04-01T06:16:10;98426.06;;;9.09;100.00
4392;BME280;2210;51.938;8.488;2023-04-01T06:29:49;98448.06;;;9.04;100.00
4392;BME280;2210;51.938;8.488;2023-04-01T06:34:06;98447.81;;;8.96;100.00
4392;BME280;2210;51.938;8.488;2023-04-01T06:39:28;98447.56;;;8.92;100.00
4392;BME280;2210;51.938;8.488;2023-04-01T06:43:02;98460.44;;;8.97;100.00
4392;BME280;2210;51.938;8.488;2023-04-01T06:56:25;98461.00;;;8.99;100.00
4392;BME280;2210;51.938;8.488;2023-04-01T07:00:30;98459.91;;;8.89;100.00
4392;BME280;2210;51.938;8.488;2023-04-01T07:04:37;98462.66;;;8.84;100.00
4392;BME280;2210;51.938;8.488;2023-04-01T07:08:50;98460.19;;;8.83;100.00
4392;BME280;2210;51.938;8.488;2023-04-01T07:13:04;98467.06;;;8.80;100.00
4392;BME280;2210;51.938;8.488;2023-04-01T07:17:15;98464.31;;;8.85;100.00
4392;BME280;2210;51.938;8.488;2023-04-01T07:21:23;98473.38;;;8.91;100.00
4392;BME280;2210;51.938;8.488;2023-04-01T07:25:39;98477.22;;;9.05;100.00
4392;BME280;2210;51.938;8.488;2023-04-01T07:29:42;98476.94;;;9.07;100.00
4392;BME280;2210;51.938;8.488;2023-04-01T07:46:56;98490.88;;;9.36;100.00
4392;BME280;2210;51.938;8.488;2023-04-01T07:51:20;98486.97;;;9.48;100.00
4392;BME280;2210;51.938;8.488;2023-04-01T08:09:22;98512.28;;;9.50;100.00
4392;BME280;2210;51.938;8.488;2023-04-01T08:13:44;98520.00;;;9.48;100.00
4392;BME280;2210;51.938;8.488;2023-04-01T08:18:04;98525.47;;;9.58;100.00
4392;BME280;2210;51.938;8.488;2023-04-01T08:22:14;98533.72;;;9.63;100.00
4392;BME280;2210;51.938;8.488;2023-04-01T08:26:37;98527.06;;;9.69;100.00
4392;BME280;2210;51.938;8.488;2023-04-01T08:31:09;98532.28;;;9.76;100.00
4392;BME280;2210;51.938;8.488;2023-04-01T08:40:16;98536.09;;;9.85;100.00
4392;BME280;2210;51.938;8.488;2023-04-01T08:53:47;98541.22;;;10.02;100.00
4392;BME280;2210;51.938;8.488;2023-04-01T09:11:52;98552.97;;;10.23;100.00
4392;BME280;2210;51.938;8.488;2023-04-01T09:20:45;98562.88;;;10.29;100.00
4392;BME280;2210;51.938;8.488;2023-04-01T09:25:01;98565.88;;;10.28;100.00
4392;BME280;2210;51.938;8.488;2023-04-01T09:29:48;98568.09;;;10.31;100.00
4392;BME280;2210;51.938;8.488;2023-04-01T09:43:06;98578.56;;;10.29;100.00
4392;BME280;2210;51.938;8.488;2023-04-01T09:47:36;98573.56;;;10.36;100.00
4392;BME280;2210;51.938;8.488;2023-04-01T10:05:16;98588.84;;;10.63;100.00
4392;BME280;2210;51.938;8.488;2023-04-01T10:10:02;98596.75;;;10.75;100.00
4392;BME280;2210;51.938;8.488;2023-04-01T10:28:08;98607.94;;;10.94;100.00
4392;BME280;2210;51.938;8.488;2023-04-01T10:36:54;98610.69;;;10.94;100.00
4392;BME280;2210;51.938;8.488;2023-04-01T10:41:28;98608.97;;;11.03;100.00
4392;BME280;2210;51.938;8.488;2023-04-01T10:54:30;98622.09;;;11.17;100.00
4392;BME280;2210;51.938;8.488;2023-04-01T11:04:21;98625.34;;;11.24;100.00
4392;BME280;2210;51.938;8.488;2023-04-01T11:08:48;98624.81;;;11.22;100.00
4392;BME280;2210;51.938;8.488;2023-04-01T11:17:43;98628.28;;;11.03;100.00
4392;BME280;2210;51.938;8.488;2023-04-01T11:22:10;98642.56;;;11.05;100.00
4392;BME280;2210;51.938;8.488;2023-04-01T11:26:31;98648.63;;;11.07;100.00
4392;BME280;2210;51.938;8.488;2023-04-01T11:35:20;98652.78;;;11.05;100.00
4392;BME280;2210;51.938;8.488;2023-04-01T11:43:38;98663.56;;;11.01;100.00
4392;BME280;2210;51.938;8.488;2023-04-01T11:52:04;98666.38;;;10.96;100.00
4392;BME280;2210;51.938;8.488;2023-04-01T12:14:03;98691.66;;;11.08;100.00
4392;BME280;2210;51.938;8.488;2023-04-01T12:22:39;98689.25;;;11.36;100.00
4392;BME280;2210;51.938;8.488;2023-04-01T12:27:12;98690.03;;;11.42;100.00
4392;BME280;2210;51.938;8.488;2023-04-01T12:31:34;98703.25;;;11.45;100.00
4392;BME280;2210;51.938;8.488;2023-04-01T12:35:48;98714.03;;;11.41;100.00
4392;BME280;2210;51.938;8.488;2023-04-01T12:54:02;98725.88;;;11.02;100.00
4392;BME280;2210;51.938;8.488;2023-04-01T12:58:36;98731.63;;;11.11;100.00
4392;BME280;2210;51.938;8.488;2023-04-01T13:20:06;98751.78;;;11.06;100.00
4392;BME280;2210;51.938;8.488;2023-04-01T13:24:31;98762.31;;;10.99;100.00
4392;BME280;2210;51.938;8.488;2023-04-01T13:28:47;98765.06;;;10.99;100.00
4392;BME280;2210;51.938;8.488;2023-04-01T13:37:13;98767.84;;;10.89;100.00
4392;BME280;2210;51.938;8.488;2023-04-01T13:59:11;98783.16;;;11.16;100.00
4392;BME280;2210;51.938;8.488;2023-04-01T14:08:04;98793.91;;;11.22;100.00
4392;BME280;2210;51.938;8.488;2023-04-01T14:12:40;98787.22;;;11.28;100.00
4392;BME280;2210;51.938;8.488;2023-04-01T14:20:53;98802.34;;;11.41;100.00
4392;BME280;2210;51.938;8.488;2023-04-01T14:33:47;98812.75;;;11.55;100.00
4392;BME280;2210;51.938;8.488;2023-04-01T14:38:04;98829.91;;;11.46;100.00
4392;BME280;2210;51.938;8.488;2023-04-01T14:55:34;98839.06;;;11.37;100.00
4392;BME280;2210;51.938;8.488;2023-04-01T14:59:51;98841.28;;;11.29;100.00
4392;BME280;2210;51.938;8.488;2023-04-01T15:04:16;98848.47;;;11.30;100.00
4392;BME280;2210;51.938;8.488;2023-04-01T15:08:26;98849.88;;;11.23;100.00
4392;BME280;2210;51.938;8.488;2023-04-01T15:16:54;98865.03;;;11.25;100.00
4392;BME280;2210;51.938;8.488;2023-04-01T15:26:01;98881.84;;;11.34;100.00
4392;BME280;2210;51.938;8.488;2023-04-01T15:30:18;98884.34;;;11.25;100.00
4392;BME280;2210;51.938;8.488;2023-04-01T15:34:45;98899.00;;;11.21;100.00
4392;BME280;2210;51.938;8.488;2023-04-01T15:38:51;98894.59;;;11.20;100.00
4392;BME280;2210;51.938;8.488;2023-04-01T15:43:15;98905.00;;;11.33;100.00
4392;BME280;2210;51.938;8.488;2023-04-01T15:51:47;98920.19;;;11.30;100.00
4392;BME280;2210;51.938;8.488;2023-04-01T16:44:29;98992.00;;;10.69;100.00
4392;BME280;2210;51.938;8.488;2023-04-01T16:48:52;99007.47;;;10.54;100.00
4392;BME280;2210;51.938;8.488;2023-04-01T16:53:17;99027.81;;;10.43;100.00
4392;BME280;2210;51.938;8.488;2023-04-01T16:57:25;99038.31;;;10.46;100.00
4392;BME280;2210;51.938;8.488;2023-04-01T17:01:52;99039.97;;;10.42;100.00
4392;BME280;2210;51.938;8.488;2023-04-01T17:06:04;99038.25;;;10.30;100.00
4392;BME280;2210;51.938;8.488;2023-04-01T17:10:32;99052.84;;;10.31;100.00
4392;BME280;2210;51.938;8.488;2023-04-01T17:22:49;99077.59;;;10.21;100.00
4392;BME280;2210;51.938;8.488;2023-04-01T17:27:25;99086.44;;;10.23;100.00
4392;BME280;2210;51.938;8.488;2023-04-01T17:31:57;99095.50;;;10.18;100.00
4392;BME280;2210;51.938;8.488;2023-04-01T17:36:17;99111.22;;;10.18;100.00
4392;BME280;2210;51.938;8.488;2023-04-01T17:40:43;99112.88;;;10.19;100.00
4392;BME280;2210;51.938;8.488;2023-04-01T17:44:58;99119.47;;;10.18;100.00
4392;BME280;2210;51.938;8.488;2023-04-01T17:58:00;99141.22;;;10.19;100.00
4392;BME280;2210;51.938;8.488;2023-04-01T18:15:31;99203.91;;;9.59;100.00
4392;BME280;2210;51.938;8.488;2023-04-01T18:20:02;99214.25;;;9.41;100.00
4392;BME280;2210;51.938;8.488;2023-04-01T18:24:28;99227.09;;;9.36;100.00
4392;BME280;2210;51.938;8.488;2023-04-01T18:28:32;99239.44;;;9.33;100.00
4392;BME280;2210;51.938;8.488;2023-04-01T18:37:12;99263.44;;;9.10;100.00
4392;BME280;2210;51.938;8.488;2023-04-01T18:41:22;99265.56;;;9.03;100.00
4392;BME280;2210;51.938;8.488;2023-04-01T18:45:30;99278.16;;;8.99;100.00
4392;BME280;2210;51.938;8.488;2023-04-01T18:49:44;99293.00;;;8.98;100.00
4392;BME280;2210;51.938;8.488;2023-04-01T18:58:34;99306.88;;;8.86;100.00
4392;BME280;2210;51.938;8.488;2023-04-01T19:02:50;99318.69;;;8.87;100.00
4392;BME280;2210;51.938;8.488;2023-04-01T19:06:58;99330.22;;;8.84;100.00
4392;BME280;2210;51.938;8.488;2023-04-01T19:15:15;99349.81;;;8.70;100.00
4392;BME280;2210;51.938;8.488;2023-04-01T19:19:52;99357.94;;;8.60;100.00
4392;BME280;2210;51.938;8.488;2023-04-01T19:50:44;99430.75;;;8.12;100.00
4392;BME280;2210;51.938;8.488;2023-04-01T19:59:50;99443.06;;;8.09;100.00
4392;BME280;2210;51.938;8.488;2023-04-01T20:04:30;99448.59;;;7.97;100.00
4392;BME280;2210;51.938;8.488;2023-04-01T20:13:17;99473.13;;;7.87;100.00
4392;BME280;2210;51.938;8.488;2023-04-01T20:17:43;99491.53;;;7.74;100.00
4392;BME280;2210;51.938;8.488;2023-04-01T20:21:46;99504.19;;;7.75;100.00
4392;BME280;2210;51.938;8.488;2023-04-01T20:25:57;99509.56;;;7.70;100.00
4392;BME280;2210;51.938;8.488;2023-04-01T20:34:48;99533.44;;;7.58;100.00
4392;BME280;2210;51.938;8.488;2023-04-01T20:39:15;99546.22;;;7.52;100.00
4392;BME280;2210;51.938;8.488;2023-04-01T20:43:42;99556.00;;;7.48;100.00
4392;BME280;2210;51.938;8.488;2023-04-01T20:48:28;99563.78;;;7.39;100.00
4392;BME280;2210;51.938;8.488;2023-04-01T20:52:40;99583.34;;;7.31;100.00
4392;BME280;2210;51.938;8.488;2023-04-01T20:57:21;99582.84;;;7.11;100.00
4392;BME280;2210;51.938;8.488;2023-04-01T21:01:41;99596.47;;;7.05;100.00
4392;BME280;2210;51.938;8.488;2023-04-01T21:11:00;99608.97;;;7.01;100.00
4392;BME280;2210;51.938;8.488;2023-04-01T21:15:37;99607.41;;;7.05;100.00
4392;BME280;2210;51.938;8.488;2023-04-01T21:24:30;99632.88;;;6.94;100.00
4392;BME280;2210;51.938;8.488;2023-04-01T21:37:52;99666.72;;;6.88;100.00
4392;BME280;2210;51.938;8.488;2023-04-01T21:42:10;99675.63;;;6.83;100.00
4392;BME280;2210;51.938;8.488;2023-04-01T22:00:20;99709.25;;;6.60;100.00
4392;BME280;2210;51.938;8.488;2023-04-01T22:09:07;99727.22;;;6.56;100.00
4392;BME280;2210;51.938;8.488;2023-04-01T22:13:16;99738.00;;;6.51;100.00
4392;BME280;2210;51.938;8.488;2023-04-01T22:17:31;99747.31;;;6.50;100.00
4392;BME280;2210;51.938;8.488;2023-04-01T22:30:20;99771.19;;;6.43;100.00
4392;BME280;2210;51.938;8.488;2023-04-01T22:39:04;99788.91;;;6.21;100.00
4392;BME280;2210;51.938;8.488;2023-04-01T22:43:25;99801.28;;;6.05;100.00
4392;BME280;2210;51.938;8.488;2023-04-01T22:48:04;99804.69;;;6.01;100.00
4392;BME280;2210;51.938;8.488;2023-04-01T22:52:12;99814.78;;;6.00;100.00
4392;BME280;2210;51.938;8.488;2023-04-01T22:56:27;99824.72;;;5.95;100.00
4392;BME280;2210;51.938;8.488;2023-04-01T23:00:39;99824.94;;;5.93;100.00
4392;BME280;2210;51.938;8.488;2023-04-01T23:05:00;99834.38;;;5.97;100.00
4392;BME280;2210;51.938;8.488;2023-04-01T23:13:22;99846.47;;;5.83;100.00
4392;BME280;2210;51.938;8.488;2023-04-01T23:17:39;99855.75;;;5.82;100.00
4392;BME280;2210;51.938;8.488;2023-04-01T23:21:49;99867.38;;;5.77;100.00
4392;BME280;2210;51.938;8.488;2023-04-01T23:34:54;99885.44;;;5.46;100.00
4392;BME280;2210;51.938;8.488;2023-04-01T23:38:57;99901.63;;;5.48;100.00
4392;BME280;2210;51.938;8.488;2023-04-01T23:43:25;99911.28;;;5.50;100.00
4392;BME280;2210;51.938;8.488;2023-04-01T23:47:31;99923.50;;;5.48;100.00
4392;BME280;2210;51.938;8.488;2023-04-01T23:52:21;99929.63;;;5.43;100.00
4392;BME280;2210;51.938;8.488;2023-04-01T23:56:06;99944.13;;;5.44;100.00
